sensor_id;sensor_type;location;lat;lon;timestamp;P1;durP1;ratioP1;P2;durP2;ratioP2
9759;SDS011;4919;48.792;9.202;2023-04-25T00:01:52;3.93;;;2.40;;
9759;SDS011;4919;48.792;9.202;2023-04-25T00:04:37;3.73;;;2.40;;
9759;SDS011;4919;48.792;9.202;2023-04-25T00:07:22;4.73;;;2.40;;
9759;SDS011;4919;48.792;9.202;2023-04-25T00:10:07;4.00;;;2.20;;
9759;SDS011;4919;48.792;9.202;2023-04-25T00:12:53;4.03;;;2.40;;
9759;SDS011;4919;48.792;9.202;2023-04-25T00:15:37;4.27;;;2.37;;
9759;SDS011;4919;48.792;9.202;2023-04-25T00:18:22;5.20;;;2.30;;
9759;SDS011;4919;48.792;9.202;2023-04-25T00:21:07;3.53;;;2.30;;
9759;SDS011;4919;48.792;9.202;2023-04-25T00:23:52;2.67;;;2.10;;
9759;SDS011;4919;48.792;9.202;2023-04-25T00:26:37;7.40;;;2.97;;
9759;SDS011;4919;48.792;9.202;2023-04-25T00:29:22;3.97;;;2.47;;
9759;SDS011;4919;48.792;9.202;2023-04-25T00:32:07;7.73;;;2.63;;
9759;SDS011;4919;48.792;9.202;2023-04-25T00:34:52;6.10;;;2.80;;
9759;SDS011;4919;48.792;9.202;2023-04-25T00:37:37;5.20;;;2.80;;
9759;SDS011;4919;48.792;9.202;2023-04-25T00:40:22;3.40;;;2.50;;
9759;SDS011;4919;48.792;9.202;2023-04-25T00:43:07;3.67;;;2.63;;
9759;SDS011;4919;48.792;9.202;2023-04-25T00:45:51;5.53;;;2.67;;
9759;SDS011;4919;48.792;9.202;2023-04-25T00:48:36;5.87;;;2.70;;
9759;SDS011;4919;48.792;9.202;2023-04-25T00:51:21;6.17;;;2.93;;
9759;SDS011;4919;48.792;9.202;2023-04-25T00:54:06;5.70;;;2.80;;
9759;SDS011;4919;48.792;9.202;2023-04-25T00:56:51;5.60;;;3.13;;
9759;SDS011;4919;48.792;9.202;2023-04-25T00:59:37;3.97;;;2.63;;
9759;SDS011;4919;48.792;9.202;2023-04-25T01:02:22;5.67;;;3.03;;
9759;SDS011;4919;48.792;9.202;2023-04-25T01:05:07;5.83;;;3.30;;
9759;SDS011;4919;48.792;9.202;2023-04-25T01:07:52;4.37;;;2.77;;
9759;SDS011;4919;48.792;9.202;2023-04-25T01:10:37;7.03;;;3.10;;
9759;SDS011;4919;48.792;9.202;2023-04-25T01:13:22;5.27;;;3.00;;
9759;SDS011;4919;48.792;9.202;2023-04-25T01:16:07;4.87;;;2.70;;
9759;SDS011;4919;48.792;9.202;2023-04-25T01:18:52;7.00;;;3.00;;
9759;SDS011;4919;48.792;9.202;2023-04-25T01:21:37;5.40;;;3.00;;
9759;SDS011;4919;48.792;9.202;2023-04-25T01:24:22;8.17;;;3.53;;
9759;SDS011;4919;48.792;9.202;2023-04-25T01:27:07;5.37;;;3.03;;
9759;SDS011;4919;48.792;9.202;2023-04-25T01:29:53;6.63;;;3.00;;
9759;SDS011;4919;48.792;9.202;2023-04-25T01:32:39;5.63;;;3.00;;
9759;SDS011;4919;48.792;9.202;2023-04-25T01:35:25;5.83;;;3.20;;
9759;SDS011;4919;48.792;9.202;2023-04-25T01:38:09;5.57;;;2.70;;
9759;SDS011;4919;48.792;9.202;2023-04-25T01:40:56;5.53;;;2.63;;
9759;SDS011;4919;48.792;9.202;2023-04-25T01:43:41;5.83;;;2.70;;
9759;SDS011;4919;48.792;9.202;2023-04-25T01:46:26;8.67;;;3.47;;
9759;SDS011;4919;48.792;9.202;2023-04-25T01:49:11;4.33;;;2.90;;
9759;SDS011;4919;48.792;9.202;2023-04-25T01:51:56;7.10;;;2.80;;
9759;SDS011;4919;48.792;9.202;2023-04-25T01:54:41;4.33;;;2.90;;
9759;SDS011;4919;48.792;9.202;2023-04-25T01:57:26;5.53;;;3.13;;
9759;SDS011;4919;48.792;9.202;2023-04-25T02:00:11;6.30;;;3.20;;
9759;SDS011;4919;48.792;9.202;2023-04-25T02:02:59;4.47;;;2.97;;
9759;SDS011;4919;48.792;9.202;2023-04-25T02:05:44;7.27;;;3.40;;
9759;SDS011;4919;48.792;9.202;2023-04-25T02:08:29;7.23;;;3.60;;
9759;SDS011;4919;48.792;9.202;2023-04-25T02:11:14;6.03;;;3.10;;
9759;SDS011;4919;48.792;9.202;2023-04-25T02:13:59;5.57;;;3.17;;
9759;SDS011;4919;48.792;9.202;2023-04-25T02:16:44;6.90;;;3.60;;
9759;SDS011;4919;48.792;9.202;2023-04-25T02:19:28;5.37;;;3.60;;
9759;SDS011;4919;48.792;9.202;2023-04-25T02:22:13;6.77;;;3.50;;
9759;SDS011;4919;48.792;9.202;2023-04-25T02:24:59;7.33;;;3.93;;
9759;SDS011;4919;48.792;9.202;2023-04-25T02:27:43;8.70;;;3.90;;
9759;SDS011;4919;48.792;9.202;2023-04-25T02:30:28;9.23;;;3.93;;
9759;SDS011;4919;48.792;9.202;2023-04-25T02:33:13;7.97;;;3.37;;
9759;SDS011;4919;48.792;9.202;2023-04-25T02:35:58;4.63;;;3.03;;
9759;SDS011;4919;48.792;9.202;2023-04-25T02:38:43;6.87;;;3.40;;
9759;SDS011;4919;48.792;9.202;2023-04-25T02:41:28;8.40;;;3.93;;
9759;SDS011;4919;48.792;9.202;2023-04-25T02:44:12;5.53;;;3.40;;
9759;SDS011;4919;48.792;9.202;2023-04-25T02:46:57;5.53;;;3.47;;
9759;SDS011;4919;48.792;9.202;2023-04-25T02:49:42;6.73;;;3.50;;
9759;SDS011;4919;48.792;9.202;2023-04-25T02:52:27;5.90;;;3.67;;
9759;SDS011;4919;48.792;9.202;2023-04-25T02:55:12;8.33;;;3.70;;
9759;SDS011;4919;48.792;9.202;2023-04-25T02:57:58;5.93;;;3.60;;
9759;SDS011;4919;48.792;9.202;2023-04-25T03:00:42;9.20;;;3.67;;
9759;SDS011;4919;48.792;9.202;2023-04-25T03:03:27;9.33;;;3.90;;
9759;SDS011;4919;48.792;9.202;2023-04-25T03:06:12;9.27;;;4.00;;
9759;SDS011;4919;48.792;9.202;2023-04-25T03:08:57;7.17;;;3.90;;
9759;SDS011;4919;48.792;9.202;2023-04-25T03:11:43;7.50;;;3.87;;
9759;SDS011;4919;48.792;9.202;2023-04-25T03:14:28;9.23;;;4.20;;
9759;SDS011;4919;48.792;9.202;2023-04-25T03:17:13;5.23;;;3.83;;
9759;SDS011;4919;48.792;9.202;2023-04-25T03:19:58;7.30;;;3.63;;
9759;SDS011;4919;48.792;9.202;2023-04-25T03:22:43;8.13;;;4.40;;
9759;SDS011;4919;48.792;9.202;2023-04-25T03:25:28;6.90;;;3.73;;
9759;SDS011;4919;48.792;9.202;2023-04-25T03:28:13;5.37;;;3.97;;
9759;SDS011;4919;48.792;9.202;2023-04-25T03:30:58;7.17;;;3.63;;
9759;SDS011;4919;48.792;9.202;2023-04-25T03:33:43;6.83;;;4.00;;
9759;SDS011;4919;48.792;9.202;2023-04-25T03:36:28;7.07;;;3.90;;
9759;SDS011;4919;48.792;9.202;2023-04-25T03:39:13;7.23;;;3.93;;
9759;SDS011;4919;48.792;9.202;2023-04-25T03:41:57;4.67;;;3.60;;
9759;SDS011;4919;48.792;9.202;2023-04-25T03:44:42;7.57;;;3.77;;
9759;SDS011;4919;48.792;9.202;2023-04-25T03:47:27;8.23;;;3.77;;
9759;SDS011;4919;48.792;9.202;2023-04-25T03:50:12;5.97;;;3.53;;
9759;SDS011;4919;48.792;9.202;2023-04-25T03:52:57;8.40;;;3.67;;
9759;SDS011;4919;48.792;9.202;2023-04-25T03:55:42;4.93;;;3.60;;
9759;SDS011;4919;48.792;9.202;2023-04-25T03:58:27;7.20;;;3.70;;
9759;SDS011;4919;48.792;9.202;2023-04-25T04:01:12;7.23;;;3.83;;
9759;SDS011;4919;48.792;9.202;2023-04-25T04:03:56;7.80;;;4.10;;
9759;SDS011;4919;48.792;9.202;2023-04-25T04:06:41;9.60;;;4.33;;
9759;SDS011;4919;48.792;9.202;2023-04-25T04:09:26;9.10;;;3.90;;
9759;SDS011;4919;48.792;9.202;2023-04-25T04:12:11;6.83;;;3.80;;
9759;SDS011;4919;48.792;9.202;2023-04-25T04:14:55;7.03;;;3.73;;
9759;SDS011;4919;48.792;9.202;2023-04-25T04:17:40;6.03;;;3.73;;
9759;SDS011;4919;48.792;9.202;2023-04-25T04:20:25;7.87;;;3.83;;
9759;SDS011;4919;48.792;9.202;2023-04-25T04:23:10;7.30;;;4.30;;
9759;SDS011;4919;48.792;9.202;2023-04-25T04:25:55;8.23;;;4.37;;
9759;SDS011;4919;48.792;9.202;2023-04-25T04:28:40;8.63;;;4.60;;
9759;SDS011;4919;48.792;9.202;2023-04-25T04:31:25;6.73;;;4.20;;
9759;SDS011;4919;48.792;9.202;2023-04-25T04:34:10;9.17;;;5.07;;
9759;SDS011;4919;48.792;9.202;2023-04-25T04:36:55;6.67;;;3.70;;
9759;SDS011;4919;48.792;9.202;2023-04-25T04:39:40;7.40;;;4.40;;
9759;SDS011;4919;48.792;9.202;2023-04-25T04:42:24;5.90;;;3.90;;
9759;SDS011;4919;48.792;9.202;2023-04-25T04:45:09;7.43;;;4.60;;
9759;SDS011;4919;48.792;9.202;2023-04-25T04:47:54;7.87;;;4.20;;
9759;SDS011;4919;48.792;9.202;2023-04-25T04:50:39;10.03;;;5.07;;
9759;SDS011;4919;48.792;9.202;2023-04-25T04:53:24;7.63;;;4.30;;
9759;SDS011;4919;48.792;9.202;2023-04-25T04:56:09;10.33;;;4.80;;
9759;SDS011;4919;48.792;9.202;2023-04-25T04:58:54;9.63;;;4.83;;
9759;SDS011;4919;48.792;9.202;2023-04-25T05:01:39;8.87;;;5.13;;
9759;SDS011;4919;48.792;9.202;2023-04-25T05:04:24;7.20;;;3.93;;
9759;SDS011;4919;48.792;9.202;2023-04-25T05:07:09;9.67;;;4.70;;
9759;SDS011;4919;48.792;9.202;2023-04-25T05:09:54;6.73;;;4.53;;
9759;SDS011;4919;48.792;9.202;2023-04-25T05:12:39;8.33;;;4.90;;
9759;SDS011;4919;48.792;9.202;2023-04-25T05:15:24;8.87;;;4.73;;
9759;SDS011;4919;48.792;9.202;2023-04-25T05:18:09;11.83;;;4.83;;
9759;SDS011;4919;48.792;9.202;2023-04-25T05:20:54;6.90;;;4.53;;
9759;SDS011;4919;48.792;9.202;2023-04-25T05:23:38;9.63;;;5.10;;
9759;SDS011;4919;48.792;9.202;2023-04-25T05:26:23;10.63;;;4.70;;
9759;SDS011;4919;48.792;9.202;2023-04-25T05:29:08;8.07;;;4.83;;
9759;SDS011;4919;48.792;9.202;2023-04-25T05:31:53;6.87;;;4.73;;
9759;SDS011;4919;48.792;9.202;2023-04-25T05:34:38;10.70;;;4.90;;
9759;SDS011;4919;48.792;9.202;2023-04-25T05:37:23;8.33;;;4.67;;
9759;SDS011;4919;48.792;9.202;2023-04-25T05:40:08;8.63;;;5.10;;
9759;SDS011;4919;48.792;9.202;2023-04-25T05:42:53;6.67;;;4.50;;
9759;SDS011;4919;48.792;9.202;2023-04-25T05:45:38;8.23;;;4.70;;
9759;SDS011;4919;48.792;9.202;2023-04-25T05:48:23;11.27;;;4.53;;
9759;SDS011;4919;48.792;9.202;2023-04-25T05:51:08;7.17;;;4.70;;
9759;SDS011;4919;48.792;9.202;2023-04-25T05:53:53;8.27;;;4.67;;
9759;SDS011;4919;48.792;9.202;2023-04-25T05:56:37;6.50;;;4.27;;
9759;SDS011;4919;48.792;9.202;2023-04-25T05:59:22;6.37;;;4.80;;
9759;SDS011;4919;48.792;9.202;2023-04-25T06:02:07;9.90;;;5.33;;
9759;SDS011;4919;48.792;9.202;2023-04-25T06:04:52;11.17;;;5.10;;
9759;SDS011;4919;48.792;9.202;2023-04-25T06:07:37;7.27;;;4.30;;
9759;SDS011;4919;48.792;9.202;2023-04-25T06:10:22;8.50;;;4.73;;
9759;SDS011;4919;48.792;9.202;2023-04-25T06:13:07;11.13;;;5.20;;
9759;SDS011;4919;48.792;9.202;2023-04-25T06:15:51;8.20;;;4.33;;
9759;SDS011;4919;48.792;9.202;2023-04-25T06:18:36;10.07;;;5.20;;
9759;SDS011;4919;48.792;9.202;2023-04-25T06:21:21;10.73;;;5.60;;
9759;SDS011;4919;48.792;9.202;2023-04-25T06:24:06;7.93;;;4.70;;
9759;SDS011;4919;48.792;9.202;2023-04-25T06:26:51;5.90;;;4.83;;
9759;SDS011;4919;48.792;9.202;2023-04-25T06:29:36;8.30;;;4.77;;
9759;SDS011;4919;48.792;9.202;2023-04-25T06:32:21;10.23;;;4.97;;
9759;SDS011;4919;48.792;9.202;2023-04-25T06:35:06;7.43;;;5.13;;
9759;SDS011;4919;48.792;9.202;2023-04-25T06:37:50;7.40;;;4.87;;
9759;SDS011;4919;48.792;9.202;2023-04-25T06:40:35;8.17;;;5.00;;
9759;SDS011;4919;48.792;9.202;2023-04-25T06:43:20;9.47;;;5.17;;
9759;SDS011;4919;48.792;9.202;2023-04-25T06:46:05;10.33;;;5.67;;
9759;SDS011;4919;48.792;9.202;2023-04-25T06:48:50;10.00;;;5.67;;
9759;SDS011;4919;48.792;9.202;2023-04-25T06:51:35;7.43;;;5.03;;
9759;SDS011;4919;48.792;9.202;2023-04-25T06:54:20;8.37;;;4.80;;
9759;SDS011;4919;48.792;9.202;2023-04-25T06:57:04;8.33;;;4.80;;
9759;SDS011;4919;48.792;9.202;2023-04-25T06:59:49;9.40;;;5.23;;
9759;SDS011;4919;48.792;9.202;2023-04-25T07:02:34;10.93;;;5.17;;
9759;SDS011;4919;48.792;9.202;2023-04-25T07:05:19;10.63;;;4.93;;
9759;SDS011;4919;48.792;9.202;2023-04-25T07:08:04;8.90;;;4.77;;
9759;SDS011;4919;48.792;9.202;2023-04-25T07:10:49;8.60;;;5.30;;
9759;SDS011;4919;48.792;9.202;2023-04-25T07:13:34;9.17;;;5.37;;
9759;SDS011;4919;48.792;9.202;2023-04-25T07:16:18;8.70;;;4.60;;
9759;SDS011;4919;48.792;9.202;2023-04-25T07:19:03;8.63;;;4.10;;
9759;SDS011;4919;48.792;9.202;2023-04-25T07:21:48;7.93;;;4.27;;
9759;SDS011;4919;48.792;9.202;2023-04-25T07:24:33;8.20;;;4.40;;
9759;SDS011;4919;48.792;9.202;2023-04-25T07:27:18;6.03;;;4.07;;
9759;SDS011;4919;48.792;9.202;2023-04-25T07:30:03;8.13;;;4.70;;
9759;SDS011;4919;48.792;9.202;2023-04-25T07:32:49;7.30;;;4.63;;
9759;SDS011;4919;48.792;9.202;2023-04-25T07:35:34;6.83;;;4.10;;
9759;SDS011;4919;48.792;9.202;2023-04-25T07:38:19;7.73;;;3.87;;
9759;SDS011;4919;48.792;9.202;2023-04-25T07:41:04;8.17;;;4.23;;
9759;SDS011;4919;48.792;9.202;2023-04-25T07:43:49;8.83;;;4.30;;
9759;SDS011;4919;48.792;9.202;2023-04-25T07:46:34;8.63;;;3.90;;
9759;SDS011;4919;48.792;9.202;2023-04-25T07:49:19;8.40;;;3.80;;
9759;SDS011;4919;48.792;9.202;2023-04-25T07:52:04;10.53;;;4.20;;
9759;SDS011;4919;48.792;9.202;2023-04-25T07:54:49;10.27;;;4.17;;
9759;SDS011;4919;48.792;9.202;2023-04-25T07:57:34;8.03;;;3.57;;
9759;SDS011;4919;48.792;9.202;2023-04-25T08:00:19;10.10;;;4.07;;
9759;SDS011;4919;48.792;9.202;2023-04-25T08:03:04;9.13;;;3.83;;
9759;SDS011;4919;48.792;9.202;2023-04-25T08:05:49;9.63;;;3.70;;
9759;SDS011;4919;48.792;9.202;2023-04-25T08:08:34;36.63;;;5.43;;
9759;SDS011;4919;48.792;9.202;2023-04-25T08:11:19;13.10;;;4.17;;
9759;SDS011;4919;48.792;9.202;2023-04-25T08:14:04;11.50;;;3.93;;
9759;SDS011;4919;48.792;9.202;2023-04-25T08:16:49;13.00;;;4.13;;
9759;SDS011;4919;48.792;9.202;2023-04-25T08:19:34;8.03;;;3.73;;
9759;SDS011;4919;48.792;9.202;2023-04-25T08:22:19;8.50;;;3.57;;
9759;SDS011;4919;48.792;9.202;2023-04-25T08:25:04;14.03;;;3.90;;
9759;SDS011;4919;48.792;9.202;2023-04-25T08:27:49;10.50;;;3.80;;
9759;SDS011;4919;48.792;9.202;2023-04-25T08:30:33;16.80;;;4.27;;
9759;SDS011;4919;48.792;9.202;2023-04-25T08:33:18;9.90;;;3.77;;
9759;SDS011;4919;48.792;9.202;2023-04-25T08:36:03;12.20;;;4.73;;
9759;SDS011;4919;48.792;9.202;2023-04-25T08:38:48;18.77;;;4.47;;
9759;SDS011;4919;48.792;9.202;2023-04-25T08:41:34;10.57;;;4.10;;
9759;SDS011;4919;48.792;9.202;2023-04-25T08:44:20;14.93;;;5.10;;
9759;SDS011;4919;48.792;9.202;2023-04-25T08:47:06;11.97;;;4.20;;
9759;SDS011;4919;48.792;9.202;2023-04-25T08:49:51;14.60;;;4.00;;
9759;SDS011;4919;48.792;9.202;2023-04-25T08:52:42;11.80;;;3.60;;
9759;SDS011;4919;48.792;9.202;2023-04-25T08:55:28;9.83;;;3.27;;
9759;SDS011;4919;48.792;9.202;2023-04-25T08:58:14;10.47;;;3.20;;
9759;SDS011;4919;48.792;9.202;2023-04-25T09:00:59;13.87;;;3.23;;
9759;SDS011;4919;48.792;9.202;2023-04-25T09:03:44;9.07;;;3.40;;
9759;SDS011;4919;48.792;9.202;2023-04-25T09:06:29;13.40;;;3.10;;
9759;SDS011;4919;48.792;9.202;2023-04-25T09:09:14;9.23;;;3.30;;
9759;SDS011;4919;48.792;9.202;2023-04-25T09:11:59;11.40;;;3.33;;
9759;SDS011;4919;48.792;9.202;2023-04-25T09:14:52;11.73;;;3.53;;
9759;SDS011;4919;48.792;9.202;2023-04-25T09:17:54;14.80;;;3.53;;
9759;SDS011;4919;48.792;9.202;2023-04-25T09:20:43;10.50;;;2.93;;
9759;SDS011;4919;48.792;9.202;2023-04-25T09:23:28;15.77;;;6.67;;
9759;SDS011;4919;48.792;9.202;2023-04-25T09:26:16;11.60;;;3.10;;
9759;SDS011;4919;48.792;9.202;2023-04-25T09:29:06;12.37;;;3.20;;
9759;SDS011;4919;48.792;9.202;2023-04-25T09:31:51;9.73;;;3.03;;
9759;SDS011;4919;48.792;9.202;2023-04-25T09:34:40;9.47;;;2.70;;
9759;SDS011;4919;48.792;9.202;2023-04-25T09:37:27;9.30;;;3.00;;
9759;SDS011;4919;48.792;9.202;2023-04-25T09:40:13;8.83;;;3.10;;
9759;SDS011;4919;48.792;9.202;2023-04-25T09:42:58;10.53;;;3.30;;
9759;SDS011;4919;48.792;9.202;2023-04-25T09:45:43;9.37;;;3.07;;
9759;SDS011;4919;48.792;9.202;2023-04-25T09:48:28;9.07;;;3.03;;
9759;SDS011;4919;48.792;9.202;2023-04-25T09:51:13;10.37;;;2.87;;
9759;SDS011;4919;48.792;9.202;2023-04-25T09:53:58;7.87;;;2.53;;
9759;SDS011;4919;48.792;9.202;2023-04-25T09:56:43;13.93;;;3.57;;
9759;SDS011;4919;48.792;9.202;2023-04-25T09:59:30;7.87;;;2.40;;
9759;SDS011;4919;48.792;9.202;2023-04-25T10:02:17;11.23;;;2.90;;
9759;SDS011;4919;48.792;9.202;2023-04-25T10:05:05;8.00;;;2.97;;
9759;SDS011;4919;48.792;9.202;2023-04-25T10:07:51;8.60;;;3.07;;
9759;SDS011;4919;48.792;9.202;2023-04-25T10:10:37;10.83;;;3.53;;
9759;SDS011;4919;48.792;9.202;2023-04-25T10:13:23;10.00;;;2.67;;
9759;SDS011;4919;48.792;9.202;2023-04-25T10:16:09;9.17;;;2.67;;
9759;SDS011;4919;48.792;9.202;2023-04-25T10:18:54;10.23;;;3.10;;
9759;SDS011;4919;48.792;9.202;2023-04-25T10:21:43;11.07;;;2.77;;
9759;SDS011;4919;48.792;9.202;2023-04-25T10:24:32;7.13;;;2.50;;
9759;SDS011;4919;48.792;9.202;2023-04-25T10:27:21;9.10;;;2.70;;
9759;SDS011;4919;48.792;9.202;2023-04-25T10:30:10;10.60;;;2.73;;
9759;SDS011;4919;48.792;9.202;2023-04-25T10:32:58;10.20;;;2.40;;
9759;SDS011;4919;48.792;9.202;2023-04-25T10:35:44;10.07;;;2.90;;
9759;SDS011;4919;48.792;9.202;2023-04-25T10:38:29;9.70;;;2.40;;
9759;SDS011;4919;48.792;9.202;2023-04-25T10:41:14;8.80;;;2.40;;
9759;SDS011;4919;48.792;9.202;2023-04-25T10:44:01;11.00;;;2.80;;
9759;SDS011;4919;48.792;9.202;2023-04-25T10:46:48;7.07;;;2.33;;
9759;SDS011;4919;48.792;9.202;2023-04-25T10:49:34;7.27;;;2.17;;
9759;SDS011;4919;48.792;9.202;2023-04-25T10:55:06;8.07;;;2.40;;
9759;SDS011;4919;48.792;9.202;2023-04-25T10:57:51;7.63;;;2.27;;
9759;SDS011;4919;48.792;9.202;2023-04-25T11:00:36;7.77;;;2.17;;
9759;SDS011;4919;48.792;9.202;2023-04-25T11:03:21;9.53;;;2.57;;
9759;SDS011;4919;48.792;9.202;2023-04-25T11:06:06;6.00;;;2.13;;
9759;SDS011;4919;48.792;9.202;2023-04-25T11:09:10;7.87;;;2.47;;
9759;SDS011;4919;48.792;9.202;2023-04-25T11:11:57;9.10;;;3.60;;
9759;SDS011;4919;48.792;9.202;2023-04-25T11:14:42;8.57;;;2.33;;
9759;SDS011;4919;48.792;9.202;2023-04-25T11:17:27;7.80;;;2.97;;
9759;SDS011;4919;48.792;9.202;2023-04-25T11:20:13;6.67;;;2.40;;
9759;SDS011;4919;48.792;9.202;2023-04-25T11:22:58;5.70;;;2.60;;
9759;SDS011;4919;48.792;9.202;2023-04-25T11:25:42;5.80;;;2.50;;
9759;SDS011;4919;48.792;9.202;2023-04-25T11:28:28;7.87;;;2.50;;
9759;SDS011;4919;48.792;9.202;2023-04-25T11:31:13;6.90;;;2.60;;
9759;SDS011;4919;48.792;9.202;2023-04-25T11:33:58;10.27;;;2.23;;
9759;SDS011;4919;48.792;9.202;2023-04-25T11:36:43;7.00;;;2.60;;
9759;SDS011;4919;48.792;9.202;2023-04-25T11:39:29;8.17;;;2.43;;
9759;SDS011;4919;48.792;9.202;2023-04-25T11:42:14;6.40;;;2.33;;
9759;SDS011;4919;48.792;9.202;2023-04-25T11:44:59;8.57;;;2.50;;
9759;SDS011;4919;48.792;9.202;2023-04-25T11:47:44;9.17;;;2.67;;
9759;SDS011;4919;48.792;9.202;2023-04-25T11:50:28;5.87;;;2.40;;
9759;SDS011;4919;48.792;9.202;2023-04-25T11:53:13;8.60;;;2.20;;
9759;SDS011;4919;48.792;9.202;2023-04-25T11:55:58;6.80;;;2.27;;
9759;SDS011;4919;48.792;9.202;2023-04-25T11:59:02;5.40;;;2.37;;
9759;SDS011;4919;48.792;9.202;2023-04-25T12:01:49;9.73;;;2.60;;
9759;SDS011;4919;48.792;9.202;2023-04-25T12:04:34;7.10;;;2.27;;
9759;SDS011;4919;48.792;9.202;2023-04-25T12:07:19;8.40;;;2.43;;
9759;SDS011;4919;48.792;9.202;2023-04-25T12:10:05;5.73;;;2.20;;
9759;SDS011;4919;48.792;9.202;2023-04-25T12:12:50;7.73;;;2.80;;
9759;SDS011;4919;48.792;9.202;2023-04-25T12:15:35;3.50;;;1.80;;
9759;SDS011;4919;48.792;9.202;2023-04-25T12:18:21;5.77;;;1.93;;
9759;SDS011;4919;48.792;9.202;2023-04-25T12:21:07;5.53;;;2.30;;
9759;SDS011;4919;48.792;9.202;2023-04-25T12:23:53;6.60;;;2.30;;
9759;SDS011;4919;48.792;9.202;2023-04-25T12:29:34;4.97;;;1.90;;
9759;SDS011;4919;48.792;9.202;2023-04-25T12:32:19;4.50;;;2.00;;
9759;SDS011;4919;48.792;9.202;2023-04-25T12:35:04;9.13;;;2.00;;
9759;SDS011;4919;48.792;9.202;2023-04-25T12:37:50;3.30;;;1.90;;
9759;SDS011;4919;48.792;9.202;2023-04-25T12:40:35;5.93;;;1.90;;
9759;SDS011;4919;48.792;9.202;2023-04-25T12:43:20;9.73;;;2.10;;
9759;SDS011;4919;48.792;9.202;2023-04-25T12:46:05;4.37;;;1.90;;
9759;SDS011;4919;48.792;9.202;2023-04-25T12:48:50;7.43;;;2.10;;
9759;SDS011;4919;48.792;9.202;2023-04-25T12:51:35;5.33;;;2.00;;
9759;SDS011;4919;48.792;9.202;2023-04-25T12:54:20;4.33;;;1.93;;
9759;SDS011;4919;48.792;9.202;2023-04-25T12:57:05;5.20;;;2.33;;
9759;SDS011;4919;48.792;9.202;2023-04-25T12:59:50;5.17;;;2.33;;
9759;SDS011;4919;48.792;9.202;2023-04-25T13:02:35;7.83;;;2.13;;
9759;SDS011;4919;48.792;9.202;2023-04-25T13:05:19;9.13;;;2.57;;
9759;SDS011;4919;48.792;9.202;2023-04-25T13:08:05;6.23;;;2.20;;
9759;SDS011;4919;48.792;9.202;2023-04-25T13:10:49;6.27;;;2.13;;
9759;SDS011;4919;48.792;9.202;2023-04-25T13:13:35;4.93;;;2.07;;
9759;SDS011;4919;48.792;9.202;2023-04-25T13:16:19;6.87;;;2.17;;
9759;SDS011;4919;48.792;9.202;2023-04-25T13:19:04;5.93;;;2.03;;
9759;SDS011;4919;48.792;9.202;2023-04-25T13:21:49;6.20;;;2.10;;
9759;SDS011;4919;48.792;9.202;2023-04-25T13:24:34;4.60;;;2.10;;
9759;SDS011;4919;48.792;9.202;2023-04-25T13:27:19;5.03;;;2.17;;
9759;SDS011;4919;48.792;9.202;2023-04-25T13:30:04;8.97;;;2.63;;
9759;SDS011;4919;48.792;9.202;2023-04-25T13:32:49;5.07;;;2.03;;
9759;SDS011;4919;48.792;9.202;2023-04-25T13:35:35;6.07;;;2.30;;
9759;SDS011;4919;48.792;9.202;2023-04-25T13:38:21;3.90;;;1.83;;
9759;SDS011;4919;48.792;9.202;2023-04-25T13:41:06;3.70;;;1.80;;
9759;SDS011;4919;48.792;9.202;2023-04-25T13:43:51;6.33;;;2.00;;
9759;SDS011;4919;48.792;9.202;2023-04-25T13:46:36;5.37;;;2.00;;
9759;SDS011;4919;48.792;9.202;2023-04-25T13:49:21;3.83;;;1.80;;
9759;SDS011;4919;48.792;9.202;2023-04-25T13:52:06;5.47;;;1.83;;
9759;SDS011;4919;48.792;9.202;2023-04-25T13:54:51;5.10;;;1.60;;
9759;SDS011;4919;48.792;9.202;2023-04-25T13:57:35;5.40;;;2.20;;
9759;SDS011;4919;48.792;9.202;2023-04-25T14:00:20;5.30;;;2.10;;
9759;SDS011;4919;48.792;9.202;2023-04-25T14:03:06;5.30;;;2.10;;
9759;SDS011;4919;48.792;9.202;2023-04-25T14:05:51;4.23;;;2.00;;
9759;SDS011;4919;48.792;9.202;2023-04-25T14:08:35;6.87;;;2.07;;
9759;SDS011;4919;48.792;9.202;2023-04-25T14:11:20;5.73;;;2.60;;
9759;SDS011;4919;48.792;9.202;2023-04-25T14:14:05;5.30;;;2.13;;
9759;SDS011;4919;48.792;9.202;2023-04-25T14:16:50;6.03;;;2.37;;
9759;SDS011;4919;48.792;9.202;2023-04-25T14:19:35;4.70;;;2.27;;
9759;SDS011;4919;48.792;9.202;2023-04-25T14:22:20;4.10;;;2.07;;
9759;SDS011;4919;48.792;9.202;2023-04-25T14:25:05;5.40;;;2.40;;
9759;SDS011;4919;48.792;9.202;2023-04-25T14:27:50;8.00;;;2.67;;
9759;SDS011;4919;48.792;9.202;2023-04-25T14:30:35;5.07;;;2.20;;
9759;SDS011;4919;48.792;9.202;2023-04-25T14:33:20;5.20;;;1.97;;
9759;SDS011;4919;48.792;9.202;2023-04-25T14:36:05;3.37;;;1.70;;
9759;SDS011;4919;48.792;9.202;2023-04-25T14:38:50;4.03;;;2.30;;
9759;SDS011;4919;48.792;9.202;2023-04-25T14:41:35;4.50;;;1.83;;
9759;SDS011;4919;48.792;9.202;2023-04-25T14:44:19;6.13;;;2.50;;
9759;SDS011;4919;48.792;9.202;2023-04-25T14:47:04;4.47;;;2.40;;
9759;SDS011;4919;48.792;9.202;2023-04-25T14:49:49;6.10;;;2.20;;
9759;SDS011;4919;48.792;9.202;2023-04-25T14:52:34;6.03;;;2.50;;
9759;SDS011;4919;48.792;9.202;2023-04-25T14:55:19;3.60;;;2.00;;
9759;SDS011;4919;48.792;9.202;2023-04-25T14:58:04;4.53;;;2.00;;
9759;SDS011;4919;48.792;9.202;2023-04-25T15:00:49;6.90;;;2.23;;
9759;SDS011;4919;48.792;9.202;2023-04-25T15:03:33;5.73;;;2.20;;
9759;SDS011;4919;48.792;9.202;2023-04-25T15:06:18;5.77;;;2.20;;
9759;SDS011;4919;48.792;9.202;2023-04-25T15:09:03;5.63;;;2.00;;
9759;SDS011;4919;48.792;9.202;2023-04-25T15:11:48;7.33;;;2.80;;
9759;SDS011;4919;48.792;9.202;2023-04-25T15:14:34;5.07;;;2.10;;
9759;SDS011;4919;48.792;9.202;2023-04-25T15:17:19;5.67;;;2.00;;
9759;SDS011;4919;48.792;9.202;2023-04-25T15:20:05;5.87;;;2.20;;
9759;SDS011;4919;48.792;9.202;2023-04-25T15:22:50;3.80;;;1.80;;
9759;SDS011;4919;48.792;9.202;2023-04-25T15:25:35;4.30;;;1.90;;
9759;SDS011;4919;48.792;9.202;2023-04-25T15:28:20;4.40;;;2.07;;
9759;SDS011;4919;48.792;9.202;2023-04-25T15:31:05;3.90;;;2.07;;
9759;SDS011;4919;48.792;9.202;2023-04-25T15:33:50;6.63;;;2.03;;
9759;SDS011;4919;48.792;9.202;2023-04-25T15:36:35;7.50;;;2.10;;
9759;SDS011;4919;48.792;9.202;2023-04-25T15:39:20;5.60;;;1.77;;
9759;SDS011;4919;48.792;9.202;2023-04-25T15:42:05;7.20;;;2.43;;
9759;SDS011;4919;48.792;9.202;2023-04-25T15:44:50;4.70;;;2.37;;
9759;SDS011;4919;48.792;9.202;2023-04-25T15:47:35;3.47;;;1.97;;
9759;SDS011;4919;48.792;9.202;2023-04-25T15:50:21;6.57;;;1.93;;
9759;SDS011;4919;48.792;9.202;2023-04-25T15:53:07;3.10;;;1.80;;
9759;SDS011;4919;48.792;9.202;2023-04-25T15:55:51;3.30;;;1.57;;
9759;SDS011;4919;48.792;9.202;2023-04-25T15:58:37;10.53;;;1.83;;
9759;SDS011;4919;48.792;9.202;2023-04-25T16:01:22;6.60;;;2.00;;
9759;SDS011;4919;48.792;9.202;2023-04-25T16:04:07;6.87;;;1.77;;
9759;SDS011;4919;48.792;9.202;2023-04-25T16:06:51;5.50;;;2.00;;
9759;SDS011;4919;48.792;9.202;2023-04-25T16:09:36;4.80;;;1.77;;
9759;SDS011;4919;48.792;9.202;2023-04-25T16:12:22;4.23;;;2.17;;
9759;SDS011;4919;48.792;9.202;2023-04-25T16:15:06;5.40;;;1.97;;
9759;SDS011;4919;48.792;9.202;2023-04-25T16:17:52;4.13;;;1.70;;
9759;SDS011;4919;48.792;9.202;2023-04-25T16:20:37;3.63;;;1.67;;
9759;SDS011;4919;48.792;9.202;2023-04-25T16:23:22;4.93;;;1.90;;
9759;SDS011;4919;48.792;9.202;2023-04-25T16:26:07;3.60;;;1.50;;
9759;SDS011;4919;48.792;9.202;2023-04-25T16:28:51;3.83;;;1.50;;
9759;SDS011;4919;48.792;9.202;2023-04-25T16:31:36;4.63;;;1.37;;
9759;SDS011;4919;48.792;9.202;2023-04-25T16:34:21;6.90;;;2.00;;
9759;SDS011;4919;48.792;9.202;2023-04-25T16:37:06;3.73;;;1.53;;
9759;SDS011;4919;48.792;9.202;2023-04-25T16:39:51;4.93;;;1.70;;
9759;SDS011;4919;48.792;9.202;2023-04-25T16:42:36;2.80;;;1.67;;
9759;SDS011;4919;48.792;9.202;2023-04-25T16:45:20;3.83;;;1.60;;
9759;SDS011;4919;48.792;9.202;2023-04-25T16:48:05;5.13;;;2.00;;
9759;SDS011;4919;48.792;9.202;2023-04-25T16:50:51;4.83;;;1.80;;
9759;SDS011;4919;48.792;9.202;2023-04-25T16:53:36;3.60;;;1.60;;
9759;SDS011;4919;48.792;9.202;2023-04-25T16:56:21;7.07;;;1.80;;
9759;SDS011;4919;48.792;9.202;2023-04-25T16:59:06;4.73;;;1.70;;
9759;SDS011;4919;48.792;9.202;2023-04-25T17:01:51;4.40;;;1.60;;
9759;SDS011;4919;48.792;9.202;2023-04-25T17:04:36;3.37;;;1.50;;
9759;SDS011;4919;48.792;9.202;2023-04-25T17:07:20;5.80;;;1.97;;
9759;SDS011;4919;48.792;9.202;2023-04-25T17:10:05;5.23;;;2.07;;